sensor_id;sensor_type;location;lat;lon;timestamp;temperature;humidity
47338;DHT22;33069;51.970;5.892;2024-01-10T00:01:35;-3273.80;56.00
47338;DHT22;33069;51.970;5.892;2024-01-10T00:04:01;-3273.90;56.50
47338;DHT22;33069;51.970;5.892;2024-01-10T00:06:27;-3273.80;56.50
47338;DHT22;33069;51.970;5.892;2024-01-10T00:08:53;-3273.90;56.80
47338;DHT22;33069;51.970;5.892;2024-01-10T00:11:18;-3273.80;56.80
47338;DHT22;33069;51.970;5.892;2024-01-10T00:13:44;-3273.80;57.00
47338;DHT22;33069;51.970;5.892;2024-01-10T00:16:13;-3273.80;57.50
47338;DHT22;33069;51.970;5.892;2024-01-10T00:18:39;-3273.70;57.60
47338;DHT22;33069;51.970;5.892;2024-01-10T00:21:08;-3273.60;58.00
47338;DHT22;33069;51.970;5.892;2024-01-10T00:23:33;-3273.60;58.20
47338;DHT22;33069;51.970;5.892;2024-01-10T00:25:59;-3273.60;58.40
47338;DHT22;33069;51.970;5.892;2024-01-10T00:28:25;-3273.60;58.70
47338;DHT22;33069;51.970;5.892;2024-01-10T00:30:51;-3273.50;58.70
47338;DHT22;33069;51.970;5.892;2024-01-10T00:33:17;-3273.50;59.20
47338;DHT22;33069;51.970;5.892;2024-01-10T00:35:43;-3273.50;59.50
47338;DHT22;33069;51.970;5.892;2024-01-10T00:38:09;-3273.50;59.90
47338;DHT22;33069;51.970;5.892;2024-01-10T00:40:35;-3273.60;59.90
47338;DHT22;33069;51.970;5.892;2024-01-10T00:43:01;-3273.50;59.80
47338;DHT22;33069;51.970;5.892;2024-01-10T00:45:27;-3273.50;60.50
47338;DHT22;33069;51.970;5.892;2024-01-10T00:47:52;-3273.50;60.50
47338;DHT22;33069;51.970;5.892;2024-01-10T00:50:18;-3273.40;60.70
47338;DHT22;33069;51.970;5.892;2024-01-10T00:52:44;-3273.40;61.00
47338;DHT22;33069;51.970;5.892;2024-01-10T00:55:10;-3273.40;60.70
47338;DHT22;33069;51.970;5.892;2024-01-10T00:57:36;-3273.40;60.90
47338;DHT22;33069;51.970;5.892;2024-01-10T01:00:07;-3273.30;61.50
47338;DHT22;33069;51.970;5.892;2024-01-10T01:02:35;-3273.40;61.20
47338;DHT22;33069;51.970;5.892;2024-01-10T01:05:01;-3273.50;61.50
47338;DHT22;33069;51.970;5.892;2024-01-10T01:07:27;-3273.40;60.90
47338;DHT22;33069;51.970;5.892;2024-01-10T01:09:53;-3273.40;60.90
47338;DHT22;33069;51.970;5.892;2024-01-10T01:12:19;-3273.40;60.90
47338;DHT22;33069;51.970;5.892;2024-01-10T01:14:44;-3273.40;61.20
47338;DHT22;33069;51.970;5.892;2024-01-10T01:17:10;-3273.40;61.30
47338;DHT22;33069;51.970;5.892;2024-01-10T01:19:36;-3273.60;61.00
47338;DHT22;33069;51.970;5.892;2024-01-10T01:22:02;-3273.50;60.20
47338;DHT22;33069;51.970;5.892;2024-01-10T01:24:27;-3273.40;59.80
47338;DHT22;33069;51.970;5.892;2024-01-10T01:26:53;-3273.40;60.70
47338;DHT22;33069;51.970;5.892;2024-01-10T01:29:20;-3273.40;60.70
47338;DHT22;33069;51.970;5.892;2024-01-10T01:31:45;-3273.50;60.70
47338;DHT22;33069;51.970;5.892;2024-01-10T01:34:11;-3273.30;60.90
47338;DHT22;33069;51.970;5.892;2024-01-10T01:36:37;-3273.30;61.10
47338;DHT22;33069;51.970;5.892;2024-01-10T01:39:03;-3273.30;61.40
47338;DHT22;33069;51.970;5.892;2024-01-10T01:41:29;-3273.30;61.20
47338;DHT22;33069;51.970;5.892;2024-01-10T01:43:55;-3273.30;60.70
47338;DHT22;33069;51.970;5.892;2024-01-10T01:46:21;-3273.30;60.40
47338;DHT22;33069;51.970;5.892;2024-01-10T01:48:47;-3273.40;60.80
47338;DHT22;33069;51.970;5.892;2024-01-10T01:51:14;-3273.40;60.90
47338;DHT22;33069;51.970;5.892;2024-01-10T01:53:40;-3273.40;60.60
47338;DHT22;33069;51.970;5.892;2024-01-10T01:56:08;-3273.40;60.60
47338;DHT22;33069;51.970;5.892;2024-01-10T01:58:35;-3273.40;61.00
47338;DHT22;33069;51.970;5.892;2024-01-10T02:01:03;-3273.40;61.20
47338;DHT22;33069;51.970;5.892;2024-01-10T02:03:34;-3273.30;61.10
47338;DHT22;33069;51.970;5.892;2024-01-10T02:06:00;-3273.30;61.30
47338;DHT22;33069;51.970;5.892;2024-01-10T02:08:33;-3273.30;61.60
47338;DHT22;33069;51.970;5.892;2024-01-10T02:11:03;-3273.20;61.50
47338;DHT22;33069;51.970;5.892;2024-01-10T02:13:29;-3273.30;61.40
47338;DHT22;33069;51.970;5.892;2024-01-10T02:15:55;-3273.30;61.20
47338;DHT22;33069;51.970;5.892;2024-01-10T02:18:21;-3273.20;61.40
47338;DHT22;33069;51.970;5.892;2024-01-10T02:20:47;-3273.30;61.10
47338;DHT22;33069;51.970;5.892;2024-01-10T02:23:13;-3273.30;60.70
47338;DHT22;33069;51.970;5.892;2024-01-10T02:25:40;-3273.20;60.50
47338;DHT22;33069;51.970;5.892;2024-01-10T02:28:06;-3273.30;60.90
47338;DHT22;33069;51.970;5.892;2024-01-10T02:30:33;-3273.30;61.00
47338;DHT22;33069;51.970;5.892;2024-01-10T02:32:58;-3273.30;60.70
47338;DHT22;33069;51.970;5.892;2024-01-10T02:35:24;-3273.20;60.80
47338;DHT22;33069;51.970;5.892;2024-01-10T02:37:50;-3273.30;61.30
47338;DHT22;33069;51.970;5.892;2024-01-10T02:40:17;-3273.30;61.30
47338;DHT22;33069;51.970;5.892;2024-01-10T02:42:43;-3273.30;61.30
47338;DHT22;33069;51.970;5.892;2024-01-10T02:45:09;-3273.20;61.20
47338;DHT22;33069;51.970;5.892;2024-01-10T02:47:34;-3273.30;61.60
47338;DHT22;33069;51.970;5.892;2024-01-10T02:50:02;-3273.10;61.50
47338;DHT22;33069;51.970;5.892;2024-01-10T02:52:28;-3273.20;62.10
47338;DHT22;33069;51.970;5.892;2024-01-10T02:54:53;-3273.10;62.20
47338;DHT22;33069;51.970;5.892;2024-01-10T02:57:19;-3273.10;62.50
47338;DHT22;33069;51.970;5.892;2024-01-10T02:59:45;-3273.20;62.90
47338;DHT22;33069;51.970;5.892;2024-01-10T03:02:10;-3273.20;62.70
47338;DHT22;33069;51.970;5.892;2024-01-10T03:04:36;-3273.10;62.90
47338;DHT22;33069;51.970;5.892;2024-01-10T03:07:01;-3273.20;63.00
47338;DHT22;33069;51.970;5.892;2024-01-10T03:09:27;-3273.10;63.30
47338;DHT22;33069;51.970;5.892;2024-01-10T03:11:53;-3273.00;63.50
47338;DHT22;33069;51.970;5.892;2024-01-10T03:14:18;-3273.00;63.70
47338;DHT22;33069;51.970;5.892;2024-01-10T03:16:44;-3273.00;63.90
47338;DHT22;33069;51.970;5.892;2024-01-10T03:19:11;-3273.00;63.70
47338;DHT22;33069;51.970;5.892;2024-01-10T03:21:37;-3273.10;63.80
47338;DHT22;33069;51.970;5.892;2024-01-10T03:24:03;-3273.10;63.90
47338;DHT22;33069;51.970;5.892;2024-01-10T03:26:29;-3273.00;63.80
47338;DHT22;33069;51.970;5.892;2024-01-10T03:28:56;-3273.00;63.80
47338;DHT22;33069;51.970;5.892;2024-01-10T03:31:22;-3273.10;63.90
47338;DHT22;33069;51.970;5.892;2024-01-10T03:33:48;-3272.90;63.30
47338;DHT22;33069;51.970;5.892;2024-01-10T03:36:17;-3272.90;63.80
47338;DHT22;33069;51.970;5.892;2024-01-10T03:38:43;-3272.80;64.00
47338;DHT22;33069;51.970;5.892;2024-01-10T03:41:16;-3272.90;64.30
47338;DHT22;33069;51.970;5.892;2024-01-10T03:43:43;-3272.80;64.40
47338;DHT22;33069;51.970;5.892;2024-01-10T03:46:09;-3272.80;64.50
47338;DHT22;33069;51.970;5.892;2024-01-10T03:48:35;-3272.80;64.30
47338;DHT22;33069;51.970;5.892;2024-01-10T03:51:02;-3272.80;64.20
47338;DHT22;33069;51.970;5.892;2024-01-10T03:53:28;-3272.80;64.50
47338;DHT22;33069;51.970;5.892;2024-01-10T03:55:54;-3272.80;64.70
47338;DHT22;33069;51.970;5.892;2024-01-10T03:58:20;-3272.80;64.10
47338;DHT22;33069;51.970;5.892;2024-01-10T04:00:46;-3272.70;64.20
47338;DHT22;33069;51.970;5.892;2024-01-10T04:03:11;-3272.70;64.50
47338;DHT22;33069;51.970;5.892;2024-01-10T04:05:37;-3272.70;64.50
47338;DHT22;33069;51.970;5.892;2024-01-10T04:08:03;-3272.70;64.70
47338;DHT22;33069;51.970;5.892;2024-01-10T04:10:29;-3272.80;64.80
47338;DHT22;33069;51.970;5.892;2024-01-10T04:12:55;-3272.70;64.60
47338;DHT22;33069;51.970;5.892;2024-01-10T04:15:20;-3272.60;65.00
47338;DHT22;33069;51.970;5.892;2024-01-10T04:17:46;-3272.60;65.10
47338;DHT22;33069;51.970;5.892;2024-01-10T04:20:13;-3272.70;65.10
47338;DHT22;33069;51.970;5.892;2024-01-10T04:22:38;-3272.70;65.20
47338;DHT22;33069;51.970;5.892;2024-01-10T04:25:06;-3272.70;65.10
47338;DHT22;33069;51.970;5.892;2024-01-10T04:27:32;-3272.70;65.10
47338;DHT22;33069;51.970;5.892;2024-01-10T04:29:58;-3272.70;65.00
47338;DHT22;33069;51.970;5.892;2024-01-10T04:32:24;-3272.70;64.90
47338;DHT22;33069;51.970;5.892;2024-01-10T04:34:50;-3272.70;65.10
47338;DHT22;33069;51.970;5.892;2024-01-10T04:37:16;-3272.70;65.00
47338;DHT22;33069;51.970;5.892;2024-01-10T04:39:42;-3272.60;65.20
47338;DHT22;33069;51.970;5.892;2024-01-10T04:42:11;-3272.50;65.20
47338;DHT22;33069;51.970;5.892;2024-01-10T04:44:37;-3272.50;65.50
47338;DHT22;33069;51.970;5.892;2024-01-10T04:47:03;-3272.60;65.70
47338;DHT22;33069;51.970;5.892;2024-01-10T04:49:29;-3272.50;65.70
47338;DHT22;33069;51.970;5.892;2024-01-10T04:51:56;-3272.50;65.60
47338;DHT22;33069;51.970;5.892;2024-01-10T04:54:22;-3272.60;65.50
47338;DHT22;33069;51.970;5.892;2024-01-10T04:56:47;-3272.40;65.80
47338;DHT22;33069;51.970;5.892;2024-01-10T04:59:13;-3272.40;66.20
47338;DHT22;33069;51.970;5.892;2024-01-10T05:01:39;-3272.50;66.20
47338;DHT22;33069;51.970;5.892;2024-01-10T05:04:05;-3272.40;66.10
47338;DHT22;33069;51.970;5.892;2024-01-10T05:06:31;-3272.40;66.30
47338;DHT22;33069;51.970;5.892;2024-01-10T05:08:57;-3272.50;66.50
47338;DHT22;33069;51.970;5.892;2024-01-10T05:11:24;-3272.60;66.50
47338;DHT22;33069;51.970;5.892;2024-01-10T05:13:54;-3272.60;66.60
47338;DHT22;33069;51.970;5.892;2024-01-10T05:16:20;-3272.50;66.10
47338;DHT22;33069;51.970;5.892;2024-01-10T05:18:45;-3272.50;66.50
47338;DHT22;33069;51.970;5.892;2024-01-10T05:21:12;-3272.50;66.50
47338;DHT22;33069;51.970;5.892;2024-01-10T05:23:38;-3272.60;66.90
47338;DHT22;33069;51.970;5.892;2024-01-10T05:26:06;-3272.50;66.80
47338;DHT22;33069;51.970;5.892;2024-01-10T05:28:32;-3272.60;67.10
47338;DHT22;33069;51.970;5.892;2024-01-10T05:30:58;-3272.50;67.20
47338;DHT22;33069;51.970;5.892;2024-01-10T05:33:24;-3272.40;67.30
47338;DHT22;33069;51.970;5.892;2024-01-10T05:35:51;-3272.40;67.10
47338;DHT22;33069;51.970;5.892;2024-01-10T05:38:17;-3272.40;67.10
47338;DHT22;33069;51.970;5.892;2024-01-10T05:40:43;-3272.50;67.20
47338;DHT22;33069;51.970;5.892;2024-01-10T05:43:09;-3272.50;67.20
47338;DHT22;33069;51.970;5.892;2024-01-10T05:45:38;-3272.40;67.00
47338;DHT22;33069;51.970;5.892;2024-01-10T05:48:04;-3272.40;67.20
47338;DHT22;33069;51.970;5.892;2024-01-10T05:50:30;-3272.50;67.40
47338;DHT22;33069;51.970;5.892;2024-01-10T05:52:55;-3272.50;67.30
47338;DHT22;33069;51.970;5.892;2024-01-10T05:55:21;-3272.60;67.30
47338;DHT22;33069;51.970;5.892;2024-01-10T05:57:49;-3272.50;67.20
47338;DHT22;33069;51.970;5.892;2024-01-10T06:00:15;-3272.40;67.00
47338;DHT22;33069;51.970;5.892;2024-01-10T06:02:42;-3272.40;67.00
47338;DHT22;33069;51.970;5.892;2024-01-10T06:05:09;-3272.40;67.30
47338;DHT22;33069;51.970;5.892;2024-01-10T06:07:36;-3272.50;67.30
47338;DHT22;33069;51.970;5.892;2024-01-10T06:10:02;-3272.60;67.20
47338;DHT22;33069;51.970;5.892;2024-01-10T06:12:28;-3272.40;67.40
47338;DHT22;33069;51.970;5.892;2024-01-10T06:14:54;-3272.40;67.50
47338;DHT22;33069;51.970;5.892;2024-01-10T06:17:20;-3272.40;67.50
47338;DHT22;33069;51.970;5.892;2024-01-10T06:19:46;-3272.40;67.60
47338;DHT22;33069;51.970;5.892;2024-01-10T06:22:11;-3272.40;67.60
47338;DHT22;33069;51.970;5.892;2024-01-10T06:24:37;-3272.30;67.60
47338;DHT22;33069;51.970;5.892;2024-01-10T06:27:08;-3272.30;67.70
47338;DHT22;33069;51.970;5.892;2024-01-10T06:29:35;-3272.30;67.40
47338;DHT22;33069;51.970;5.892;2024-01-10T06:32:05;-3272.30;67.40
47338;DHT22;33069;51.970;5.892;2024-01-10T06:34:32;-3272.40;67.70
47338;DHT22;33069;51.970;5.892;2024-01-10T06:36:58;-3272.30;67.70
47338;DHT22;33069;51.970;5.892;2024-01-10T06:39:24;-3272.30;67.90
47338;DHT22;33069;51.970;5.892;2024-01-10T06:41:50;-3272.30;67.70
47338;DHT22;33069;51.970;5.892;2024-01-10T06:44:15;-3272.40;67.50
47338;DHT22;33069;51.970;5.892;2024-01-10T06:46:44;-3272.40;67.30
47338;DHT22;33069;51.970;5.892;2024-01-10T06:49:11;-3272.40;67.00
47338;DHT22;33069;51.970;5.892;2024-01-10T06:51:39;-3272.30;67.20
47338;DHT22;33069;51.970;5.892;2024-01-10T06:54:05;-3272.30;67.00
47338;DHT22;33069;51.970;5.892;2024-01-10T06:56:32;-3272.30;67.00
47338;DHT22;33069;51.970;5.892;2024-01-10T06:58:59;-3272.30;66.90
47338;DHT22;33069;51.970;5.892;2024-01-10T07:01:25;-3272.30;66.80
47338;DHT22;33069;51.970;5.892;2024-01-10T07:03:52;-3272.30;66.50
47338;DHT22;33069;51.970;5.892;2024-01-10T07:06:18;-3272.40;66.60
47338;DHT22;33069;51.970;5.892;2024-01-10T07:08:44;-3272.40;66.40
47338;DHT22;33069;51.970;5.892;2024-01-10T07:11:12;-3272.30;66.20
47338;DHT22;33069;51.970;5.892;2024-01-10T07:13:38;-3272.40;66.50
47338;DHT22;33069;51.970;5.892;2024-01-10T07:16:04;-3272.30;66.50
47338;DHT22;33069;51.970;5.892;2024-01-10T07:18:30;-3272.40;66.80
47338;DHT22;33069;51.970;5.892;2024-01-10T07:20:58;-3272.30;66.80
47338;DHT22;33069;51.970;5.892;2024-01-10T07:23:25;-3272.30;66.90
47338;DHT22;33069;51.970;5.892;2024-01-10T07:25:50;-3272.30;66.90
47338;DHT22;33069;51.970;5.892;2024-01-10T07:28:17;-3272.30;66.70
47338;DHT22;33069;51.970;5.892;2024-01-10T07:30:44;-3272.30;66.40
47338;DHT22;33069;51.970;5.892;2024-01-10T07:33:10;-3272.30;66.40
47338;DHT22;33069;51.970;5.892;2024-01-10T07:35:36;-3272.40;66.20
47338;DHT22;33069;51.970;5.892;2024-01-10T07:38:04;-3272.40;66.30
47338;DHT22;33069;51.970;5.892;2024-01-10T07:40:30;-3272.50;66.50
47338;DHT22;33069;51.970;5.892;2024-01-10T07:42:57;-3272.50;66.10
47338;DHT22;33069;51.970;5.892;2024-01-10T07:45:22;-3272.40;66.20
47338;DHT22;33069;51.970;5.892;2024-01-10T07:47:48;-3272.40;66.30
47338;DHT22;33069;51.970;5.892;2024-01-10T07:50:14;-3272.40;66.00
47338;DHT22;33069;51.970;5.892;2024-01-10T07:52:40;-3272.60;65.80
47338;DHT22;33069;51.970;5.892;2024-01-10T07:55:06;-3272.50;65.80
47338;DHT22;33069;51.970;5.892;2024-01-10T07:57:33;-3272.60;65.60
47338;DHT22;33069;51.970;5.892;2024-01-10T07:59:59;-3272.60;65.60
47338;DHT22;33069;51.970;5.892;2024-01-10T08:02:25;-3272.50;65.40
47338;DHT22;33069;51.970;5.892;2024-01-10T08:04:52;-3272.40;65.80
47338;DHT22;33069;51.970;5.892;2024-01-10T08:07:18;-3272.40;65.90
47338;DHT22;33069;51.970;5.892;2024-01-10T08:09:45;-3272.50;65.80
47338;DHT22;33069;51.970;5.892;2024-01-10T08:12:11;-3272.60;65.70
47338;DHT22;33069;51.970;5.892;2024-01-10T08:14:37;-3272.60;65.50
47338;DHT22;33069;51.970;5.892;2024-01-10T08:17:03;-3272.60;65.60
47338;DHT22;33069;51.970;5.892;2024-01-10T08:19:29;-3272.60;65.20
47338;DHT22;33069;51.970;5.892;2024-01-10T08:21:55;-3272.60;65.20
47338;DHT22;33069;51.970;5.892;2024-01-10T08:24:22;-3272.60;65.10
47338;DHT22;33069;51.970;5.892;2024-01-10T08:26:48;-3272.70;64.80
47338;DHT22;33069;51.970;5.892;2024-01-10T08:29:20;-3272.70;64.60
47338;DHT22;33069;51.970;5.892;2024-01-10T08:31:47;-3272.80;64.80
47338;DHT22;33069;51.970;5.892;2024-01-10T08:34:13;-3272.80;64.60
47338;DHT22;33069;51.970;5.892;2024-01-10T08:36:39;-3272.90;64.60
47338;DHT22;33069;51.970;5.892;2024-01-10T08:39:05;-3272.90;64.20
47338;DHT22;33069;51.970;5.892;2024-01-10T08:41:32;-3272.90;63.60
47338;DHT22;33069;51.970;5.892;2024-01-10T08:43:59;-3273.00;64.20
47338;DHT22;33069;51.970;5.892;2024-01-10T08:46:25;-3273.00;63.90
47338;DHT22;33069;51.970;5.892;2024-01-10T08:48:51;-3273.00;63.60
47338;DHT22;33069;51.970;5.892;2024-01-10T08:51:17;-3273.10;63.30
47338;DHT22;33069;51.970;5.892;2024-01-10T08:53:43;-3273.00;62.90
47338;DHT22;33069;51.970;5.892;2024-01-10T08:56:10;-3273.00;62.70
47338;DHT22;33069;51.970;5.892;2024-01-10T08:58:36;-3273.00;62.90
47338;DHT22;33069;51.970;5.892;2024-01-10T09:01:02;-3273.00;62.50
47338;DHT22;33069;51.970;5.892;2024-01-10T09:03:30;-3273.10;62.60
47338;DHT22;33069;51.970;5.892;2024-01-10T09:05:56;-3273.10;62.30
47338;DHT22;33069;51.970;5.892;2024-01-10T09:08:22;-3273.20;62.00
47338;DHT22;33069;51.970;5.892;2024-01-10T09:10:48;-3273.30;62.10
47338;DHT22;33069;51.970;5.892;2024-01-10T09:13:17;-3273.20;62.00
47338;DHT22;33069;51.970;5.892;2024-01-10T09:15:43;-3273.30;61.60
47338;DHT22;33069;51.970;5.892;2024-01-10T09:18:08;-3273.30;61.50
47338;DHT22;33069;51.970;5.892;2024-01-10T09:20:34;-3273.30;61.40
47338;DHT22;33069;51.970;5.892;2024-01-10T09:23:01;-3273.40;60.80
47338;DHT22;33069;51.970;5.892;2024-01-10T09:25:27;-3273.50;61.00
47338;DHT22;33069;51.970;5.892;2024-01-10T09:27:53;-3273.50;60.70
47338;DHT22;33069;51.970;5.892;2024-01-10T09:30:20;-3273.50;60.80
47338;DHT22;33069;51.970;5.892;2024-01-10T09:32:46;-3273.60;61.20
47338;DHT22;33069;51.970;5.892;2024-01-10T09:35:12;-3273.70;61.00
47338;DHT22;33069;51.970;5.892;2024-01-10T09:37:38;-3273.70;60.20
47338;DHT22;33069;51.970;5.892;2024-01-10T09:40:05;-3273.80;60.20
47338;DHT22;33069;51.970;5.892;2024-01-10T09:42:33;-3273.80;59.90
47338;DHT22;33069;51.970;5.892;2024-01-10T09:45:01;-3273.90;59.70
47338;DHT22;33069;51.970;5.892;2024-01-10T09:47:30;-3274.00;59.00
47338;DHT22;33069;51.970;5.892;2024-01-10T09:49:58;-3273.90;59.10
47338;DHT22;33069;51.970;5.892;2024-01-10T09:52:27;-3274.00;58.90
47338;DHT22;33069;51.970;5.892;2024-01-10T09:54:57;-3274.10;58.50
47338;DHT22;33069;51.970;5.892;2024-01-10T09:57:26;-3274.10;58.40
47338;DHT22;33069;51.970;5.892;2024-01-10T09:59:52;-3274.10;57.90
47338;DHT22;33069;51.970;5.892;2024-01-10T10:02:19;-3274.10;57.40
47338;DHT22;33069;51.970;5.892;2024-01-10T10:04:54;-3274.30;57.90
47338;DHT22;33069;51.970;5.892;2024-01-10T10:07:20;-3274.20;57.20
47338;DHT22;33069;51.970;5.892;2024-01-10T10:09:46;-3274.20;56.80
47338;DHT22;33069;51.970;5.892;2024-01-10T10:12:12;-3274.30;57.30
47338;DHT22;33069;51.970;5.892;2024-01-10T10:14:37;-3274.50;57.20
47338;DHT22;33069;51.970;5.892;2024-01-10T10:17:18;-3274.50;57.20
47338;DHT22;33069;51.970;5.892;2024-01-10T10:19:44;-3274.50;56.90
47338;DHT22;33069;51.970;5.892;2024-01-10T10:22:11;-3274.60;56.60
47338;DHT22;33069;51.970;5.892;2024-01-10T10:24:37;-3274.50;56.60
47338;DHT22;33069;51.970;5.892;2024-01-10T10:27:11;-3274.70;56.80
47338;DHT22;33069;51.970;5.892;2024-01-10T10:29:37;-3274.70;56.20
47338;DHT22;33069;51.970;5.892;2024-01-10T10:32:05;-3274.70;56.20
47338;DHT22;33069;51.970;5.892;2024-01-10T10:34:31;-3274.70;56.20
47338;DHT22;33069;51.970;5.892;2024-01-10T10:37:01;-3274.80;55.80
47338;DHT22;33069;51.970;5.892;2024-01-10T10:39:28;-3274.90;55.60
47338;DHT22;33069;51.970;5.892;2024-01-10T10:41:54;-3275.00;55.60
47338;DHT22;33069;51.970;5.892;2024-01-10T10:44:24;-3275.00;54.80
47338;DHT22;33069;51.970;5.892;2024-01-10T10:46:53;-3275.10;55.60
47338;DHT22;33069;51.970;5.892;2024-01-10T10:49:29;-3275.20;55.30
47338;DHT22;33069;51.970;5.892;2024-01-10T10:51:59;-3275.20;55.20
47338;DHT22;33069;51.970;5.892;2024-01-10T10:54:28;-3275.30;54.60
47338;DHT22;33069;51.970;5.892;2024-01-10T10:56:59;-3275.30;54.30
47338;DHT22;33069;51.970;5.892;2024-01-10T10:59:27;-3275.40;54.30
47338;DHT22;33069;51.970;5.892;2024-01-10T11:01:55;-3275.40;54.00
47338;DHT22;33069;51.970;5.892;2024-01-10T11:04:21;-3275.40;55.00
47338;DHT22;33069;51.970;5.892;2024-01-10T11:06:47;-3275.50;53.80
47338;DHT22;33069;51.970;5.892;2024-01-10T11:09:15;-3275.60;53.70
47338;DHT22;33069;51.970;5.892;2024-01-10T11:20:43;-3275.70;52.80
47338;DHT22;33069;51.970;5.892;2024-01-10T11:23:38;-3275.60;52.50
47338;DHT22;33069;51.970;5.892;2024-01-10T11:26:07;-3275.60;52.70
47338;DHT22;33069;51.970;5.892;2024-01-10T11:28:33;-3275.90;52.50
47338;DHT22;33069;51.970;5.892;2024-01-10T11:31:01;-3276.00;52.30
47338;DHT22;33069;51.970;5.892;2024-01-10T11:33:34;-3276.00;51.20
47338;DHT22;33069;51.970;5.892;2024-01-10T11:36:19;-3276.10;51.90
47338;DHT22;33069;51.970;5.892;2024-01-10T11:41:35;-3276.30;50.30
47338;DHT22;33069;51.970;5.892;2024-01-10T11:46:39;-3276.30;50.10
47338;DHT22;33069;51.970;5.892;2024-01-10T11:49:09;-3276.50;49.80
47338;DHT22;33069;51.970;5.892;2024-01-10T11:51:38;-3276.50;50.10
47338;DHT22;33069;51.970;5.892;2024-01-10T11:54:04;-3276.60;49.60
47338;DHT22;33069;51.970;5.892;2024-01-10T11:56:43;-3276.60;48.40
47338;DHT22;33069;51.970;5.892;2024-01-10T11:59:11;-3276.60;49.00
47338;DHT22;33069;51.970;5.892;2024-01-10T12:01:38;-3276.60;48.20
47338;DHT22;33069;51.970;5.892;2024-01-10T12:04:05;-3276.70;48.70
47338;DHT22;33069;51.970;5.892;2024-01-10T12:06:32;-3276.70;48.00
47338;DHT22;33069;51.970;5.892;2024-01-10T12:08:58;-3276.70;48.50
47338;DHT22;33069;51.970;5.892;2024-01-10T12:11:25;-3276.70;48.80
47338;DHT22;33069;51.970;5.892;2024-01-10T12:13:50;-3276.70;47.90
47338;DHT22;33069;51.970;5.892;2024-01-10T12:16:16;0.00;48.50
47338;DHT22;33069;51.970;5.892;2024-01-10T12:18:43;0.00;48.20
47338;DHT22;33069;51.970;5.892;2024-01-10T12:21:09;0.00;47.30
47338;DHT22;33069;51.970;5.892;2024-01-10T12:23:36;0.00;47.60
47338;DHT22;33069;51.970;5.892;2024-01-10T12:26:13;0.00;47.80
47338;DHT22;33069;51.970;5.892;2024-01-10T12:28:39;0.00;47.40
47338;DHT22;33069;51.970;5.892;2024-01-10T12:31:06;0.00;47.70
47338;DHT22;33069;51.970;5.892;2024-01-10T12:33:37;0.00;47.50
47338;DHT22;33069;51.970;5.892;2024-01-10T12:36:10;0.00;47.40
47338;DHT22;33069;51.970;5.892;2024-01-10T12:38:39;0.00;47.90
47338;DHT22;33069;51.970;5.892;2024-01-10T12:41:06;0.00;47.30
47338;DHT22;33069;51.970;5.892;2024-01-10T12:43:34;0.00;47.30
47338;DHT22;33069;51.970;5.892;2024-01-10T12:46:08;0.00;47.80
47338;DHT22;33069;51.970;5.892;2024-01-10T12:48:37;0.10;47.90
47338;DHT22;33069;51.970;5.892;2024-01-10T12:51:04;0.20;47.60
47338;DHT22;33069;51.970;5.892;2024-01-10T12:53:33;0.20;47.80
47338;DHT22;33069;51.970;5.892;2024-01-10T12:55:59;0.30;47.40
47338;DHT22;33069;51.970;5.892;2024-01-10T12:58:25;0.20;46.30
47338;DHT22;33069;51.970;5.892;2024-01-10T13:00:51;0.20;46.80
47338;DHT22;33069;51.970;5.892;2024-01-10T13:03:18;0.20;47.00
47338;DHT22;33069;51.970;5.892;2024-01-10T13:05:43;0.20;46.70
47338;DHT22;33069;51.970;5.892;2024-01-10T13:08:09;0.20;47.40
47338;DHT22;33069;51.970;5.892;2024-01-10T13:10:37;0.30;47.50
47338;DHT22;33069;51.970;5.892;2024-01-10T13:13:03;0.30;47.50
47338;DHT22;33069;51.970;5.892;2024-01-10T13:15:28;0.40;47.40
47338;DHT22;33069;51.970;5.892;2024-01-10T13:17:54;0.40;47.40
47338;DHT22;33069;51.970;5.892;2024-01-10T13:20:19;0.40;47.30
47338;DHT22;33069;51.970;5.892;2024-01-10T13:22:45;0.40;47.60
47338;DHT22;33069;51.970;5.892;2024-01-10T13:25:11;0.40;47.50
47338;DHT22;33069;51.970;5.892;2024-01-10T13:27:36;0.50;47.30
47338;DHT22;33069;51.970;5.892;2024-01-10T13:30:02;0.50;47.60
47338;DHT22;33069;51.970;5.892;2024-01-10T13:32:29;0.30;46.40
47338;DHT22;33069;51.970;5.892;2024-01-10T13:34:55;0.40;47.50
47338;DHT22;33069;51.970;5.892;2024-01-10T13:37:21;0.40;47.50
47338;DHT22;33069;51.970;5.892;2024-01-10T13:39:46;0.40;47.40
47338;DHT22;33069;51.970;5.892;2024-01-10T13:42:12;0.40;47.70
47338;DHT22;33069;51.970;5.892;2024-01-10T13:44:37;0.40;47.80
47338;DHT22;33069;51.970;5.892;2024-01-10T13:47:04;0.50;48.30
47338;DHT22;33069;51.970;5.892;2024-01-10T13:49:29;0.50;48.30
47338;DHT22;33069;51.970;5.892;2024-01-10T13:51:55;0.50;48.50
47338;DHT22;33069;51.970;5.892;2024-01-10T13:54:21;0.60;48.20
47338;DHT22;33069;51.970;5.892;2024-01-10T13:56:47;0.50;48.20
47338;DHT22;33069;51.970;5.892;2024-01-10T13:59:13;0.50;48.40
47338;DHT22;33069;51.970;5.892;2024-01-10T14:01:38;0.40;48.80
47338;DHT22;33069;51.970;5.892;2024-01-10T14:04:05;0.40;48.90
47338;DHT22;33069;51.970;5.892;2024-01-10T14:06:30;0.40;48.70
47338;DHT22;33069;51.970;5.892;2024-01-10T14:08:56;0.50;48.90
47338;DHT22;33069;51.970;5.892;2024-01-10T14:11:23;0.50;48.50
47338;DHT22;33069;51.970;5.892;2024-01-10T14:13:49;0.50;49.10
47338;DHT22;33069;51.970;5.892;2024-01-10T14:16:15;0.50;49.10
47338;DHT22;33069;51.970;5.892;2024-01-10T14:18:40;0.60;49.00
47338;DHT22;33069;51.970;5.892;2024-01-10T14:21:06;0.70;49.30
47338;DHT22;33069;51.970;5.892;2024-01-10T14:23:32;0.70;49.30
47338;DHT22;33069;51.970;5.892;2024-01-10T14:25:59;0.90;49.00
47338;DHT22;33069;51.970;5.892;2024-01-10T14:28:25;1.00;48.60
47338;DHT22;33069;51.970;5.892;2024-01-10T14:30:51;1.00;48.60
47338;DHT22;33069;51.970;5.892;2024-01-10T14:33:16;1.00;48.00
47338;DHT22;33069;51.970;5.892;2024-01-10T14:35:42;1.00;47.70
47338;DHT22;33069;51.970;5.892;2024-01-10T14:38:07;1.00;47.50
47338;DHT22;33069;51.970;5.892;2024-01-10T14:40:33;1.10;48.10
47338;DHT22;33069;51.970;5.892;2024-01-10T14:42:59;1.20;47.50
47338;DHT22;33069;51.970;5.892;2024-01-10T14:45:24;1.30;48.10
47338;DHT22;33069;51.970;5.892;2024-01-10T14:47:50;1.30;47.80
47338;DHT22;33069;51.970;5.892;2024-01-10T14:50:16;1.10;48.40
47338;DHT22;33069;51.970;5.892;2024-01-10T14:52:42;0.90;48.30
47338;DHT22;33069;51.970;5.892;2024-01-10T14:55:07;0.70;48.60
47338;DHT22;33069;51.970;5.892;2024-01-10T14:57:33;0.80;48.70
47338;DHT22;33069;51.970;5.892;2024-01-10T14:59:59;0.60;49.00
47338;DHT22;33069;51.970;5.892;2024-01-10T15:02:25;0.60;49.30
47338;DHT22;33069;51.970;5.892;2024-01-10T15:04:50;0.60;49.00
47338;DHT22;33069;51.970;5.892;2024-01-10T15:07:16;0.60;49.10
47338;DHT22;33069;51.970;5.892;2024-01-10T15:09:42;0.50;48.70
47338;DHT22;33069;51.970;5.892;2024-01-10T15:12:07;0.50;49.50